createdAt,value
2022-11-27T00:01:19.119Z,84.68
2022-11-27T00:03:46.339Z,85.24
2022-11-27T00:06:19.271Z,85.47
2022-11-27T00:08:46.609Z,86.37
2022-11-27T00:11:16.437Z,86.15
2022-11-27T00:13:43.332Z,87.62
2022-11-27T00:16:10.370Z,88.45
2022-11-27T00:18:37.572Z,87.82
2022-11-27T00:21:06.321Z,88.30
2022-11-27T00:23:33.435Z,87.60
2022-11-27T00:25:59.903Z,88.53
2022-11-27T00:28:28.928Z,87.96
2022-11-27T00:31:04.465Z,87.75
2022-11-27T00:33:31.582Z,88.34
2022-11-27T00:36:03.201Z,88.28
2022-11-27T00:38:30.482Z,88.37
2022-11-27T00:41:15.597Z,88.68
2022-11-27T00:43:45.027Z,88.83
2022-11-27T00:46:13.712Z,89.30
2022-11-27T00:48:40.659Z,89.10
2022-11-27T00:51:08.879Z,89.17
2022-11-27T00:53:35.751Z,89.22
2022-11-27T00:56:02.676Z,88.64
2022-11-27T00:58:30.521Z,88.79
2022-11-27T01:00:59.009Z,90.21
2022-11-27T01:03:26.515Z,91.33
2022-11-27T01:05:53.173Z,90.72
2022-11-27T01:08:19.900Z,90.85
2022-11-27T01:10:54.766Z,90.28
2022-11-27T01:13:26.942Z,89.63
2022-11-27T01:16:06.113Z,89.69
2022-11-27T01:18:34.050Z,89.55
2022-11-27T01:21:00.842Z,89.44
2022-11-27T01:23:27.593Z,89.17
2022-11-27T01:25:55.112Z,88.25
2022-11-27T01:28:24.596Z,88.57
2022-11-27T01:30:51.885Z,88.34
2022-11-27T01:33:19.024Z,87.97
2022-11-27T01:36:00.043Z,87.44
2022-11-27T01:38:27.682Z,87.28
2022-11-27T01:40:59.589Z,86.93
2022-11-27T01:43:47.858Z,87.10
2022-11-27T01:46:40.379Z,87.05
2022-11-27T01:49:09.872Z,87.22
2022-11-27T01:51:39.905Z,87.75
2022-11-27T01:54:09.159Z,87.34
2022-11-27T01:56:36.278Z,86.75
2022-11-27T01:59:03.744Z,87.86
2022-11-27T02:01:30.336Z,86.64
2022-11-27T02:03:59.507Z,86.91
2022-11-27T02:06:26.105Z,86.52
2022-11-27T02:08:52.785Z,86.31
2022-11-27T02:11:25.696Z,87.10
2022-11-27T02:14:26.467Z,86.31
2022-11-27T02:17:02.828Z,86.29
2022-11-27T02:20:20.554Z,86.13
2022-11-27T02:22:46.958Z,85.52
2022-11-27T02:25:18.138Z,86.01
2022-11-27T02:28:02.469Z,86.62
2022-11-27T02:30:35.434Z,86.23
2022-11-27T02:33:09.310Z,86.61
2022-11-27T02:35:48.005Z,86.57
2022-11-27T02:38:23.175Z,87.10
2022-11-27T02:40:56.204Z,88.04
2022-11-27T02:43:29.539Z,87.47
2022-11-27T02:45:57.681Z,87.90
2022-11-27T02:48:31.206Z,88.03
2022-11-27T02:50:57.665Z,87.69
2022-11-27T02:53:39.317Z,87.89
2022-11-27T02:56:14.701Z,87.33
2022-11-27T02:58:42.176Z,86.65
2022-11-27T03:01:12.373Z,87.58
2022-11-27T03:03:44.112Z,87.01
2022-11-27T03:06:14.240Z,86.79
2022-11-27T03:08:56.677Z,87.32
2022-11-27T03:11:23.416Z,87.76
2022-11-27T03:13:54.835Z,87.25
2022-11-27T03:17:03.237Z,87.78
2022-11-27T03:19:42.983Z,87.38
2022-11-27T03:22:10.703Z,87.63
2022-11-27T03:24:37.610Z,86.63
2022-11-27T03:27:07.080Z,85.99
2022-11-27T03:29:39.444Z,86.59
2022-11-27T03:32:06.021Z,86.34
2022-11-27T03:34:33.363Z,86.50
2022-11-27T03:37:00.795Z,85.59
2022-11-27T03:39:28.912Z,85.88
2022-11-27T03:42:05.557Z,86.38
2022-11-27T03:44:48.297Z,85.45
2022-11-27T03:47:35.465Z,86.63
2022-11-27T03:50:14.294Z,87.11
2022-11-27T03:52:56.049Z,87.46
2022-11-27T03:55:44.327Z,87.87
2022-11-27T03:58:29.349Z,88.09
2022-11-27T04:01:00.376Z,88.20
2022-11-27T04:03:30.871Z,88.06
2022-11-27T04:05:57.736Z,88.58
2022-11-27T04:08:24.240Z,88.51
2022-11-27T04:10:50.789Z,87.59
2022-11-27T04:13:17.260Z,88.15
2022-11-27T04:15:43.803Z,88.55
2022-11-27T04:18:11.511Z,88.27
2022-11-27T04:20:38.112Z,88.34
2022-11-27T04:23:04.774Z,88.09
2022-11-27T04:25:32.368Z,87.96
2022-11-27T04:27:58.866Z,88.00
2022-11-27T04:30:25.290Z,87.77
2022-11-27T04:32:51.802Z,87.37
2022-11-27T04:35:18.316Z,87.11
2022-11-27T04:37:44.807Z,87.71
2022-11-27T04:40:12.056Z,87.79
2022-11-27T04:42:38.511Z,87.82
2022-11-27T04:45:05.627Z,87.76
2022-11-27T04:47:32.080Z,88.53
2022-11-27T04:49:58.527Z,88.66
2022-11-27T04:52:24.975Z,89.06
2022-11-27T04:54:55.364Z,88.84
2022-11-27T04:57:25.048Z,88.96
2022-11-27T04:59:51.537Z,89.40
2022-11-27T05:02:18.044Z,89.48
2022-11-27T05:04:45.158Z,89.33
2022-11-27T05:07:11.704Z,89.67
2022-11-27T05:09:38.189Z,89.33
2022-11-27T05:12:04.928Z,89.67
2022-11-27T05:14:31.560Z,89.15
2022-11-27T05:16:59.112Z,89.16
2022-11-27T05:19:28.361Z,87.72
2022-11-27T05:21:56.728Z,87.73
2022-11-27T05:24:25.764Z,87.49
2022-11-27T05:26:53.065Z,87.08
2022-11-27T05:29:20.268Z,87.75
2022-11-27T05:31:47.144Z,87.21
2022-11-27T05:34:14.752Z,87.55
2022-11-27T05:36:41.788Z,88.12
2022-11-27T05:39:09.760Z,87.62
2022-11-27T05:41:38.272Z,87.72
2022-11-27T05:44:06.377Z,87.57
2022-11-27T05:46:33.481Z,86.79
2022-11-27T05:49:00.131Z,85.86
2022-11-27T05:51:26.650Z,84.59
2022-11-27T05:53:53.073Z,84.98
2022-11-27T05:56:19.626Z,85.71
2022-11-27T05:58:47.643Z,85.76
2022-11-27T06:01:16.204Z,85.11
2022-11-27T06:03:42.768Z,85.74
2022-11-27T06:06:13.299Z,86.04
2022-11-27T06:08:40.943Z,86.62
2022-11-27T06:11:09.177Z,87.23
2022-11-27T06:13:36.393Z,86.81
2022-11-27T06:16:14.774Z,86.05
2022-11-27T06:18:41.289Z,87.07
2022-11-27T06:21:09.463Z,87.58
2022-11-27T06:23:36.514Z,86.96
2022-11-27T06:26:14.270Z,86.52
2022-11-27T06:28:41.176Z,86.73
2022-11-27T06:31:17.576Z,86.08
2022-11-27T06:33:44.732Z,86.32
2022-11-27T06:36:11.346Z,85.96
2022-11-27T06:38:38.337Z,85.83
2022-11-27T06:41:10.537Z,86.58
2022-11-27T06:43:37.499Z,86.50
2022-11-27T06:46:06.098Z,86.98
2022-11-27T06:48:34.004Z,87.38
2022-11-27T06:51:01.915Z,86.88
2022-11-27T06:53:30.144Z,87.40
2022-11-27T06:55:57.011Z,87.02
2022-11-27T06:58:29.400Z,87.61
2022-11-27T07:00:59.262Z,87.08
2022-11-27T07:03:26.745Z,87.50
2022-11-27T07:05:53.721Z,87.25
2022-11-27T07:08:20.971Z,87.32
2022-11-27T07:10:47.542Z,86.61
2022-11-27T07:13:14.042Z,86.39
2022-11-27T07:15:40.466Z,86.57
2022-11-27T07:18:06.994Z,87.30
2022-11-27T07:20:33.453Z,86.46
2022-11-27T07:23:00.000Z,86.58
2022-11-27T07:25:32.500Z,86.55
2022-11-27T07:27:58.990Z,86.56
2022-11-27T07:30:25.450Z,87.95
2022-11-27T07:32:51.863Z,87.85
2022-11-27T07:35:18.530Z,87.59
2022-11-27T07:37:44.957Z,87.00
2022-11-27T07:40:13.041Z,86.93
2022-11-27T07:42:41.181Z,86.43
2022-11-27T07:45:08.584Z,85.65
2022-11-27T07:47:35.361Z,85.81
2022-11-27T07:50:02.010Z,86.21
2022-11-27T07:52:28.535Z,86.91
2022-11-27T07:54:55.023Z,86.17
2022-11-27T07:57:21.515Z,86.38
2022-11-27T07:59:48.166Z,85.84
2022-11-27T08:02:14.930Z,85.77
2022-11-27T08:04:41.842Z,85.58
2022-11-27T08:07:08.592Z,85.01
2022-11-27T08:09:35.058Z,85.25
2022-11-27T08:12:01.526Z,85.37
2022-11-27T08:14:28.040Z,84.17
2022-11-27T08:16:54.640Z,84.96
2022-11-27T08:19:22.353Z,85.30
2022-11-27T08:21:48.821Z,84.56
2022-11-27T08:24:15.433Z,82.56
2022-11-27T08:26:41.946Z,82.69
2022-11-27T08:29:11.551Z,82.37
2022-11-27T08:31:38.463Z,81.95
2022-11-27T08:34:05.108Z,82.10
2022-11-27T08:36:32.547Z,82.30
2022-11-27T08:38:59.169Z,82.11
2022-11-27T08:41:25.672Z,82.59
2022-11-27T08:43:52.105Z,81.90
2022-11-27T08:46:18.710Z,82.18
2022-11-27T08:48:45.217Z,82.41
2022-11-27T08:51:15.260Z,81.49
2022-11-27T08:53:45.435Z,80.94
2022-11-27T08:56:21.311Z,80.59
2022-11-27T08:58:48.596Z,81.67
2022-11-27T09:01:18.685Z,81.34
2022-11-27T09:03:46.051Z,81.45
2022-11-27T09:06:16.184Z,81.38
2022-11-27T09:08:43.603Z,81.13
2022-11-27T09:11:11.325Z,81.24
2022-11-27T09:13:40.045Z,81.56
2022-11-27T09:16:12.401Z,80.67
2022-11-27T09:18:39.201Z,79.16
2022-11-27T09:21:10.851Z,78.64
2022-11-27T09:23:38.460Z,77.75
2022-11-27T09:26:10.531Z,76.08
2022-11-27T09:28:38.168Z,74.99
2022-11-27T09:31:06.514Z,73.94
2022-11-27T09:33:35.234Z,73.33
2022-11-27T09:36:10.435Z,72.18
2022-11-27T09:38:37.688Z,85.71
2022-11-27T09:41:10.425Z,89.12
2022-11-27T09:43:44.493Z,77.98
2022-11-27T09:46:17.501Z,69.24
2022-11-27T09:48:48.339Z,69.84
2022-11-27T09:51:48.043Z,70.64
2022-11-27T09:54:46.760Z,71.93
2022-11-27T09:57:21.975Z,73.08
2022-11-27T09:59:53.590Z,73.47
2022-11-27T10:02:48.117Z,73.91
2022-11-27T10:05:24.201Z,73.14
2022-11-27T10:08:28.967Z,73.29
2022-11-27T10:11:11.720Z,73.78
2022-11-27T10:14:10.685Z,74.15
2022-11-27T10:16:44.748Z,74.48
2022-11-27T10:19:23.302Z,72.94
2022-11-27T10:21:59.560Z,74.21
2022-11-27T10:24:41.565Z,72.95
2022-11-27T10:27:29.230Z,73.48
2022-11-27T10:29:57.552Z,72.29
2022-11-27T10:32:54.524Z,70.14
2022-11-27T10:35:22.255Z,70.01
2022-11-27T10:38:06.827Z,70.19
2022-11-27T10:40:42.224Z,69.86
2022-11-27T10:43:24.134Z,69.72
2022-11-27T10:46:09.133Z,70.72
2022-11-27T10:48:35.743Z,70.08
2022-11-27T10:51:02.236Z,69.77
2022-11-27T10:53:35.421Z,69.55
2022-11-27T10:56:04.867Z,69.66
2022-11-27T10:58:41.840Z,69.16
2022-11-27T11:01:13.928Z,70.52
2022-11-27T11:03:40.679Z,68.65
2022-11-27T11:06:23.012Z,68.86
2022-11-27T11:09:15.188Z,66.67
2022-11-27T11:11:41.738Z,66.41
2022-11-27T11:14:19.115Z,66.83
2022-11-27T11:16:46.259Z,65.56
2022-11-27T11:19:30.952Z,66.65
2022-11-27T11:21:59.562Z,67.17
2022-11-27T11:24:29.648Z,65.69
2022-11-27T11:27:01.753Z,66.43
2022-11-27T11:29:38.765Z,66.17
2022-11-27T11:32:28.166Z,65.44
2022-11-27T11:35:01.124Z,65.12
2022-11-27T11:37:38.517Z,65.90
2022-11-27T11:40:16.318Z,65.37
2022-11-27T11:42:54.206Z,65.51
2022-11-27T11:45:22.485Z,65.23
2022-11-27T11:47:54.750Z,64.77
2022-11-27T11:51:05.581Z,64.21
2022-11-27T11:53:35.330Z,63.84
2022-11-27T11:56:23.019Z,64.16
2022-11-27T11:59:00.368Z,64.64
2022-11-27T12:01:45.267Z,63.00
2022-11-27T12:04:30.042Z,62.35
2022-11-27T12:07:06.322Z,62.92
2022-11-27T12:10:06.150Z,63.49
2022-11-27T12:12:51.032Z,61.32
2022-11-27T12:15:33.378Z,60.85
2022-11-27T12:18:21.190Z,61.82
2022-11-27T12:21:15.312Z,61.76
2022-11-27T12:24:01.120Z,60.73
2022-11-27T12:26:38.588Z,60.66
2022-11-27T12:29:23.811Z,60.42
2022-11-27T12:31:56.420Z,60.41
2022-11-27T12:34:27.785Z,61.02
2022-11-27T12:37:16.311Z,64.07
2022-11-27T12:40:11.826Z,65.36
2022-11-27T12:42:53.571Z,66.01
2022-11-27T12:45:27.459Z,66.83
2022-11-27T12:47:58.854Z,67.17
2022-11-27T12:50:45.417Z,67.17
2022-11-27T12:53:42.868Z,66.96
2022-11-27T12:56:18.575Z,67.53
2022-11-27T12:58:50.938Z,67.04
2022-11-27T13:01:26.781Z,67.31
2022-11-27T13:04:15.376Z,67.39
2022-11-27T13:07:03.317Z,67.25
2022-11-27T13:10:02.796Z,67.78
2022-11-27T13:12:37.595Z,67.85
2022-11-27T13:15:15.332Z,67.21
2022-11-27T13:17:44.430Z,68.20
2022-11-27T13:20:23.884Z,68.77
2022-11-27T13:22:50.999Z,68.91
2022-11-27T13:25:17.606Z,69.33
2022-11-27T13:27:49.220Z,70.13
2022-11-27T13:30:31.790Z,69.61
2022-11-27T13:33:03.631Z,68.66
2022-11-27T13:35:38.311Z,68.89
2022-11-27T13:38:10.849Z,64.49
2022-11-27T13:41:00.156Z,67.89
2022-11-27T13:43:43.258Z,66.89
2022-11-27T13:46:25.026Z,67.36
2022-11-27T13:49:03.665Z,68.07
2022-11-27T13:51:33.894Z,67.86
2022-11-27T13:54:12.038Z,65.03
2022-11-27T13:56:39.576Z,64.74
2022-11-27T13:59:16.757Z,63.60
2022-11-27T14:01:53.620Z,63.37
2022-11-27T14:04:20.197Z,63.96
2022-11-27T14:06:54.234Z,64.73
2022-11-27T14:09:42.557Z,65.01
2022-11-27T14:12:15.084Z,65.54
2022-11-27T14:14:43.695Z,64.77
2022-11-27T14:17:37.265Z,64.84
2022-11-27T14:20:23.397Z,65.05
2022-11-27T14:23:12.916Z,65.38
2022-11-27T14:25:41.240Z,65.51
2022-11-27T14:28:21.797Z,65.37
2022-11-27T14:30:52.853Z,65.50
2022-11-27T14:33:22.927Z,65.66
2022-11-27T14:35:55.783Z,65.41
2022-11-27T14:38:24.119Z,64.69
2022-11-27T14:40:55.783Z,64.66
2022-11-27T14:43:25.916Z,64.09
2022-11-27T14:45:55.932Z,64.80
2022-11-27T14:48:41.518Z,63.83
2022-11-27T14:51:14.020Z,64.58
2022-11-27T14:53:41.243Z,64.66
2022-11-27T14:56:08.069Z,63.93
2022-11-27T14:58:35.166Z,64.05
2022-11-27T15:01:05.639Z,64.13
2022-11-27T15:03:33.289Z,63.57
2022-11-27T15:06:05.710Z,64.30
2022-11-27T15:08:36.236Z,64.17
2022-11-27T15:11:05.236Z,63.90
2022-11-27T15:13:37.240Z,63.10
2022-11-27T15:16:07.374Z,62.66
2022-11-27T15:18:37.089Z,62.90
2022-11-27T15:21:17.628Z,63.19
2022-11-27T15:23:46.723Z,62.05
2022-11-27T15:26:25.714Z,63.15
2022-11-27T15:28:58.964Z,63.32
2022-11-27T15:31:30.101Z,63.30
2022-11-27T15:34:15.348Z,63.43
2022-11-27T15:36:44.128Z,63.82
2022-11-27T15:39:24.655Z,63.54
2022-11-27T15:42:02.357Z,64.34
2022-11-27T15:44:32.393Z,64.20
2022-11-27T15:47:01.479Z,64.41
2022-11-27T15:49:28.780Z,64.38
2022-11-27T15:51:56.614Z,64.34
2022-11-27T15:54:24.113Z,64.14
2022-11-27T15:56:50.799Z,64.69
2022-11-27T15:59:20.372Z,64.24
2022-11-27T16:01:47.001Z,64.67
2022-11-27T16:04:13.472Z,64.33
2022-11-27T16:06:40.077Z,64.80
2022-11-27T16:09:06.673Z,64.76
2022-11-27T16:11:33.139Z,64.46
2022-11-27T16:13:59.703Z,64.45
2022-11-27T16:16:26.745Z,64.69
2022-11-27T16:18:56.970Z,65.28
2022-11-27T16:21:29.242Z,64.12
2022-11-27T16:24:03.536Z,64.12
2022-11-27T16:26:30.946Z,64.92
2022-11-27T16:28:57.984Z,64.40
2022-11-27T16:31:26.493Z,64.19
2022-11-27T16:33:53.129Z,64.00
2022-11-27T16:36:22.971Z,63.23
2022-11-27T16:38:52.423Z,64.47
2022-11-27T16:41:19.285Z,63.78
2022-11-27T16:43:48.861Z,62.98
2022-11-27T16:46:26.192Z,63.39
2022-11-27T16:48:54.301Z,62.24
2022-11-27T16:51:32.171Z,62.45
2022-11-27T16:54:04.757Z,62.96
2022-11-27T16:56:32.718Z,62.98
2022-11-27T16:59:03.131Z,62.84
2022-11-27T17:01:36.687Z,63.15
2022-11-27T17:04:09.124Z,62.63
2022-11-27T17:06:37.976Z,62.62
2022-11-27T17:09:07.467Z,62.34
2022-11-27T17:11:35.923Z,61.76
2022-11-27T17:14:06.807Z,61.73
2022-11-27T17:16:35.372Z,62.04
2022-11-27T17:19:03.638Z,62.03
2022-11-27T17:21:33.359Z,62.10
2022-11-27T17:24:02.167Z,62.75
2022-11-27T17:26:35.107Z,62.47
2022-11-27T17:29:03.356Z,63.28
2022-11-27T17:31:37.005Z,63.42
2022-11-27T17:34:05.165Z,64.04
2022-11-27T17:36:37.144Z,63.92
2022-11-27T17:39:06.910Z,64.36
2022-11-27T17:41:34.569Z,63.87
2022-11-27T17:44:04.218Z,64.59
2022-11-27T17:46:32.291Z,64.52
2022-11-27T17:49:00.261Z,64.62
2022-11-27T17:51:30.183Z,64.64
2022-11-27T17:54:01.741Z,63.89
2022-11-27T17:56:31.109Z,64.56
2022-11-27T17:58:59.708Z,65.25
2022-11-27T18:01:29.003Z,64.71
2022-11-27T18:03:59.737Z,65.14
2022-11-27T18:06:27.188Z,65.18
2022-11-27T18:08:55.825Z,64.85
2022-11-27T18:11:27.740Z,64.53
2022-11-27T18:13:56.128Z,72.82
2022-11-27T18:16:31.731Z,77.59
2022-11-27T18:19:01.819Z,72.73
2022-11-27T18:21:28.613Z,67.90
2022-11-27T18:29:28.772Z,61.53
2022-11-27T18:31:55.314Z,61.04
2022-11-27T18:34:21.799Z,62.63
2022-11-27T18:36:48.240Z,62.22
2022-11-27T18:39:15.093Z,63.18
2022-11-27T18:41:41.558Z,63.42
2022-11-27T18:44:10.073Z,64.47
2022-11-27T18:46:38.250Z,64.29
2022-11-27T18:49:05.463Z,64.73
2022-11-27T18:51:32.271Z,64.76
2022-11-27T18:53:58.873Z,65.23
2022-11-27T18:56:28.480Z,64.73
2022-11-27T18:58:55.869Z,63.82
2022-11-27T19:01:27.878Z,64.35
2022-11-27T19:03:55.403Z,65.23
2022-11-27T19:06:26.402Z,64.47
2022-11-27T19:08:52.921Z,65.17
2022-11-27T19:11:22.132Z,64.86
2022-11-27T19:13:49.969Z,64.48
2022-11-27T19:16:29.723Z,64.96
2022-11-27T19:19:01.346Z,64.77
2022-11-27T19:21:30.481Z,64.46
2022-11-27T19:23:59.176Z,64.47
2022-11-27T19:26:28.368Z,64.43
2022-11-27T19:28:57.004Z,64.27
2022-11-27T19:31:25.579Z,65.15
2022-11-27T19:34:00.370Z,65.02
2022-11-27T19:36:32.289Z,64.80
2022-11-27T19:39:01.827Z,64.94
2022-11-27T19:41:30.695Z,65.33
2022-11-27T19:44:01.225Z,65.42
2022-11-27T19:46:29.848Z,65.06
2022-11-27T19:49:01.484Z,65.77
2022-11-27T19:51:31.924Z,66.28
2022-11-27T19:54:01.801Z,65.70
2022-11-27T19:56:33.497Z,66.23
2022-11-27T19:59:02.110Z,65.83
2022-11-27T20:01:29.199Z,66.34
2022-11-27T20:03:55.871Z,66.45
2022-11-27T20:06:26.145Z,66.92
2022-11-27T20:08:57.321Z,66.91
2022-11-27T20:11:26.662Z,66.99
2022-11-27T20:13:59.616Z,67.55
2022-11-27T20:16:27.466Z,66.57
2022-11-27T20:18:54.657Z,67.87
2022-11-27T20:21:25.152Z,66.92
2022-11-27T20:23:52.710Z,66.91
2022-11-27T20:26:22.275Z,67.01
2022-11-27T20:28:49.941Z,67.41
2022-11-27T20:31:25.765Z,67.33
2022-11-27T20:33:56.600Z,68.15
2022-11-27T20:36:24.909Z,68.38
2022-11-27T20:38:52.106Z,68.50
2022-11-27T20:41:21.025Z,67.67
2022-11-27T20:43:50.655Z,67.51
2022-11-27T20:46:17.972Z,67.60
2022-11-27T20:48:52.831Z,68.20
2022-11-27T20:51:22.795Z,68.20
2022-11-27T20:53:49.939Z,67.94
2022-11-27T20:56:19.546Z,68.16
2022-11-27T20:58:47.461Z,67.48
2022-11-27T21:01:22.900Z,68.16
2022-11-27T21:03:51.378Z,67.78
2022-11-27T21:06:20.714Z,67.63
2022-11-27T21:08:48.579Z,67.40
2022-11-27T21:11:18.513Z,67.91
2022-11-27T21:13:45.111Z,67.29
2022-11-27T21:16:14.293Z,67.70
2022-11-27T21:18:41.102Z,67.96
2022-11-27T21:21:09.492Z,68.13
2022-11-27T21:23:37.907Z,67.86
2022-11-27T21:26:05.885Z,67.94
2022-11-27T21:28:33.016Z,68.82
2022-11-27T21:31:07.684Z,68.35
2022-11-27T21:33:35.704Z,68.58
2022-11-27T21:36:03.240Z,68.38
2022-11-27T21:38:29.949Z,68.49
2022-11-27T21:40:57.195Z,68.41
2022-11-27T21:43:23.733Z,67.79
2022-11-27T21:45:51.119Z,68.14
2022-11-27T21:48:18.333Z,68.08
2022-11-27T21:50:44.861Z,68.25
2022-11-27T21:53:11.402Z,68.27
2022-11-27T21:55:42.240Z,68.03
2022-11-27T21:58:08.973Z,68.40
2022-11-27T22:00:36.771Z,68.18
2022-11-27T22:03:03.410Z,67.85
2022-11-27T22:05:30.024Z,67.25
2022-11-27T22:07:56.550Z,67.85
2022-11-27T22:10:23.028Z,68.29
2022-11-27T22:12:49.565Z,68.96
2022-11-27T22:15:16.201Z,68.44
2022-11-27T22:17:42.628Z,68.46
2022-11-27T22:20:09.371Z,69.12
2022-11-27T22:22:35.868Z,68.68
2022-11-27T22:25:04.520Z,68.79
2022-11-27T22:27:31.153Z,68.50
2022-11-27T22:29:57.574Z,67.54
2022-11-27T22:32:23.979Z,67.29
2022-11-27T22:34:51.043Z,67.30
2022-11-27T22:37:17.620Z,67.27
2022-11-27T22:39:44.448Z,67.38
2022-11-27T22:42:12.165Z,67.52
2022-11-27T22:44:39.119Z,67.17
2022-11-27T22:47:05.881Z,67.24
2022-11-27T22:49:32.539Z,67.33
2022-11-27T22:51:59.272Z,67.99
2022-11-27T22:54:25.795Z,67.83
2022-11-27T22:56:54.020Z,67.81
2022-11-27T22:59:36.834Z,67.81
2022-11-27T23:02:05.285Z,67.76
2022-11-27T23:04:33.377Z,68.07
2022-11-27T23:07:00.228Z,67.12
2022-11-27T23:09:28.404Z,68.13
2022-11-27T23:11:56.363Z,67.75
2022-11-27T23:14:23.997Z,67.47
2022-11-27T23:16:50.492Z,67.53
2022-11-27T23:19:17.345Z,67.08
2022-11-27T23:21:44.389Z,67.43
2022-11-27T23:24:15.139Z,68.01
2022-11-27T23:26:42.778Z,67.88
2022-11-27T23:29:09.287Z,68.59
2022-11-27T23:31:36.418Z,67.83
2022-11-27T23:34:07.356Z,68.42
2022-11-27T23:36:34.847Z,68.94
2022-11-27T23:39:03.057Z,68.57
2022-11-27T23:41:29.987Z,68.82
2022-11-27T23:43:56.978Z,68.45
2022-11-27T23:46:26.661Z,67.99
2022-11-27T23:48:54.938Z,68.62
2022-11-27T23:51:25.756Z,68.74
2022-11-27T23:53:53.180Z,68.83
2022-11-27T23:56:22.569Z,69.17
2022-11-27T23:58:49.391Z,68.95
